Terminal Aerodrome Forecast
Issued by NWS

Home | Current Version | Previous Version | Text Only | Print | Product List | Glossary On
Versions: 1 2 3 4 5 6 7 8 9 10 11 12 13 14
000
FTUS43 KGRR 011720
TAFMKG
TAF
KMKG 011720Z 0118/0218 27013KT P6SM FEW070
     FM020000 21006KT P6SM SCT100
     FM021000 22007KT P6SM VCTS BKN050CB
     FM021500 22014G22KT P6SM FEW050 BKN150=

USA.gov is the U.S. government's official web portal to all federal, state and local government web resources and services.